createdAt,value
2019-04-11T00:06:41.786Z,80.70
2019-04-11T00:16:47.712Z,80.80
2019-04-11T00:26:53.487Z,85.30
2019-04-11T00:37:00.973Z,98.10
2019-04-11T00:47:06.956Z,99.30
2019-04-11T00:57:13.188Z,93.90
2019-04-11T01:07:18.955Z,83.50
2019-04-11T01:17:25.388Z,82.00
2019-04-11T01:27:32.498Z,82.10
2019-04-11T01:37:40.104Z,87.10
2019-04-11T01:47:57.397Z,86.80
2019-04-11T01:58:03.097Z,86.30
2019-04-11T02:08:09.243Z,85.20
2019-04-11T02:18:15.092Z,83.40
2019-04-11T02:28:22.422Z,83.90
2019-04-11T02:38:30.094Z,84.00
2019-04-11T02:48:37.687Z,85.30
2019-04-11T02:58:44.208Z,89.40
2019-04-11T03:08:50.967Z,91.10
2019-04-11T03:19:13.264Z,95.90
2019-04-11T03:29:09.136Z,95.80
2019-04-11T03:39:39.468Z,95.50
2019-04-11T03:49:39.844Z,96.00
2019-04-11T03:59:39.039Z,95.90
2019-04-11T04:09:46.201Z,95.70
2019-04-11T04:20:04.886Z,95.90
2019-04-11T04:30:13.687Z,95.20
2019-04-11T04:40:35.984Z,93.50
2019-04-11T04:50:26.807Z,93.80
2019-04-11T05:00:34.846Z,95.10
2019-04-11T05:10:40.764Z,97.30
2019-04-11T05:20:46.476Z,97.50
2019-04-11T05:30:53.146Z,97.40
2019-04-11T05:40:59.194Z,97.90
2019-04-11T05:51:04.799Z,97.70
2019-04-11T06:01:18.089Z,98.00
2019-04-11T06:11:26.350Z,98.00
2019-04-11T06:21:42.760Z,98.20
2019-04-11T06:32:07.610Z,97.60
2019-04-11T06:42:27.602Z,97.90
2019-04-11T06:52:35.440Z,97.80
2019-04-11T07:02:55.077Z,98.10
2019-04-11T07:13:03.483Z,98.60
2019-04-11T07:23:27.016Z,98.30
2019-04-11T07:33:35.378Z,98.40
2019-04-11T07:43:41.314Z,99.00
2019-04-11T07:53:48.544Z,99.70
2019-04-11T08:04:03.745Z,99.90
2019-04-11T08:14:28.593Z,99.90
2019-04-11T08:24:42.698Z,99.90
2019-04-11T08:34:51.293Z,99.90
2019-04-11T08:44:58.512Z,99.90
2019-04-11T08:55:08.148Z,99.90
2019-04-11T09:05:20.398Z,99.90
2019-04-11T09:15:45.350Z,99.90
2019-04-11T09:26:07.598Z,99.90
2019-04-11T09:36:15.574Z,99.90
2019-04-11T09:46:26.241Z,99.90
2019-04-11T09:56:51.844Z,99.90
2019-04-11T10:07:15.619Z,99.50
2019-04-11T10:17:31.830Z,98.60
2019-04-11T10:38:02.218Z,97.10
2019-04-11T10:48:09.514Z,96.20
2019-04-11T10:58:16.950Z,96.30
2019-04-11T11:08:26.719Z,95.00
2019-04-11T11:19:20.887Z,94.30
2019-04-11T11:29:16.889Z,94.00
2019-04-11T11:39:33.353Z,93.70
2019-04-11T11:49:48.965Z,92.90
2019-04-11T11:59:48.880Z,93.30
2019-04-11T12:10:00.717Z,92.40
2019-04-11T12:20:15.709Z,92.40
2019-04-11T12:30:27.956Z,92.70
2019-04-11T12:40:49.827Z,92.70
2019-04-11T12:51:23.376Z,92.00
2019-04-11T13:01:33.155Z,91.60
2019-04-11T13:11:43.040Z,90.80
2019-04-11T13:21:50.239Z,90.80
2019-04-11T13:32:13.476Z,90.60
2019-04-11T13:42:42.410Z,90.40
2019-04-11T13:53:07.927Z,89.20
2019-04-11T14:03:22.082Z,88.00
2019-04-11T14:13:29.240Z,89.60
2019-04-11T14:23:55.099Z,90.40
2019-04-11T14:34:08.051Z,88.50
2019-04-11T14:44:15.790Z,88.30
2019-04-11T14:54:29.485Z,87.90
2019-04-11T15:04:43.973Z,87.20
2019-04-11T15:15:07.280Z,86.50
2019-04-11T15:25:29.877Z,86.50
2019-04-11T15:35:35.474Z,86.20
2019-04-11T15:45:48.710Z,87.10
2019-04-11T15:56:11.986Z,87.10
2019-04-11T16:06:34.771Z,87.70
2019-04-11T16:16:56.603Z,87.90
2019-04-11T16:27:09.708Z,89.00
2019-04-11T16:37:17.546Z,88.20
2019-04-11T16:47:39.153Z,86.80
2019-04-11T16:57:44.968Z,87.50
2019-04-11T17:18:47.118Z,87.90
2019-04-11T17:28:54.516Z,88.70
2019-04-11T17:38:59.798Z,88.30
2019-04-11T17:49:05.414Z,88.40
2019-04-11T17:59:30.356Z,87.60
2019-04-11T18:09:36.163Z,86.60
2019-04-11T18:19:41.903Z,88.40
2019-04-11T18:29:47.488Z,87.60
2019-04-11T18:39:53.934Z,89.00
2019-04-11T18:50:01.579Z,87.80
2019-04-11T19:00:09.928Z,88.10
2019-04-11T19:10:16.284Z,88.40
2019-04-11T19:20:23.141Z,90.10
2019-04-11T19:30:28.843Z,89.20
2019-04-11T19:40:34.422Z,89.20
2019-04-11T19:50:39.940Z,89.80
2019-04-11T20:00:47.520Z,90.20
2019-04-11T20:11:01.065Z,90.30
2019-04-11T20:21:07.672Z,90.20
2019-04-11T20:31:12.351Z,90.40
2019-04-11T20:41:17.935Z,90.40
2019-04-11T20:51:23.629Z,90.10
2019-04-11T21:01:29.140Z,90.20
2019-04-11T21:11:37.213Z,90.30
2019-04-11T21:21:48.904Z,90.60
2019-04-11T21:31:54.407Z,90.10
2019-04-11T21:42:05.786Z,90.30
2019-04-11T21:52:23.090Z,90.10
2019-04-11T22:02:28.716Z,88.10
2019-04-11T22:12:34.322Z,90.00
2019-04-11T22:22:46.963Z,89.10
2019-04-11T22:32:57.450Z,88.90
2019-04-11T22:43:02.224Z,88.60
2019-04-11T22:53:12.874Z,89.10
2019-04-11T23:03:20.751Z,88.10
2019-04-11T23:13:26.392Z,88.70
2019-04-11T23:23:31.926Z,88.40
2019-04-11T23:33:37.519Z,89.00
2019-04-11T23:43:43.039Z,88.00
2019-04-11T23:53:48.624Z,88.60
